Time;durP1;ratioP1;P1;durP2;ratioP2;P2;SDS_P1;SDS_P2;PMS_P1;PMS_P2;Temp;Humidity;BMP_temperature;BMP_pressure;BME280_temperature;BME280_humidity;BME280_pressure;Samples;Min_cycle;Max_cycle;Signal;HPM_P1;HPM_P2
2022/06/22 00:00:36;;;;;;;9.13;4.90;;;;;;;12.54;74.88;100812.77;1708986;82;21168;-85
2022/06/22 00:03:06;;;;;;;11.43;4.72;;;;;;;12.52;74.97;100813.13;1729755;82;21408;-84
2022/06/22 00:05:38;;;;;;;9.45;4.83;;;;;;;12.51;75.02;100816.21;1729336;82;21079;-83
2022/06/22 00:08:07;;;;;;;12.65;5.22;;;;;;;12.51;75.11;100816.66;1719840;82;21078;-84
2022/06/22 00:10:58;;;;;;;13.10;5.62;;;;;;;12.49;75.13;100814.42;1722561;82;21253;-83
2022/06/22 00:13:29;;;;;;;9.15;4.92;;;;;;;12.48;75.24;100815.27;1714863;82;21561;-85
2022/06/22 00:16:06;;;;;;;13.60;4.90;;;;;;;12.46;75.31;100820.52;1721004;82;21779;-83
2022/06/22 00:18:46;;;;;;;17.37;4.90;;;;;;;12.45;75.39;100817.43;1714258;82;21047;-83
2022/06/22 00:21:30;;;;;;;15.80;5.28;;;;;;;12.46;75.54;100815.23;1721925;82;21199;-83
2022/06/22 00:24:17;;;;;;;10.63;4.83;;;;;;;12.45;75.64;100807.75;1698830;82;21572;-82
2022/06/22 00:26:47;;;;;;;14.47;5.12;;;;;;;12.44;75.75;100808.63;1700566;82;21130;-83
2022/06/22 00:29:21;;;;;;;11.45;4.87;;;;;;;12.44;75.82;100803.35;1700632;82;21815;-83
2022/06/22 00:31:57;;;;;;;10.43;4.83;;;;;;;12.43;75.92;100802.87;1703109;83;22951;-82
2022/06/22 00:34:29;;;;;;;10.30;4.95;;;;;;;12.43;75.97;100803.31;1704147;82;21074;-85
2022/06/22 00:37:07;;;;;;;10.75;5.15;;;;;;;12.42;76.01;100797.56;1709943;82;21687;-84
2022/06/22 00:39:40;;;;;;;14.68;5.15;;;;;;;12.41;76.04;100800.64;1727640;82;21091;-84
2022/06/22 00:42:24;;;;;;;13.15;5.83;;;;;;;12.40;76.05;100799.29;1681138;84;21785;-85
2022/06/22 00:45:12;;;;;;;15.23;5.33;;;;;;;12.40;76.17;100797.97;1694766;83;21110;-84
2022/06/22 00:47:46;;;;;;;10.93;5.15;;;;;;;12.38;76.13;100801.02;1730596;82;21333;-85
2022/06/22 00:50:18;;;;;;;16.48;5.85;;;;;;;12.36;76.19;100811.98;1720459;81;21231;-84
2022/06/22 00:53:04;;;;;;;11.53;5.30;;;;;;;12.33;76.27;100808.86;1721078;82;21642;-83
2022/06/22 00:55:39;;;;;;;10.13;4.80;;;;;;;12.33;76.22;100810.59;1723019;82;21772;-84
2022/06/22 00:58:27;;;;;;;11.25;5.72;;;;;;;12.31;76.42;100818.91;1715197;82;21071;-86
2022/06/22 01:01:10;;;;;;;9.55;4.83;;;;;;;12.30;76.41;100814.52;1727284;82;21080;-83
2022/06/22 01:03:41;;;;;;;11.40;5.13;;;;;;;12.29;76.48;100815.36;1727650;81;21162;-84
2022/06/22 01:06:16;;;;;;;17.27;6.03;;;;;;;12.27;76.56;100809.16;1733252;82;21083;-84
2022/06/22 01:09:15;;;;;;;9.28;5.00;;;;;;;12.24;76.64;100805.61;1731439;82;22561;-85
2022/06/22 01:14:43;;;;;;;8.85;5.25;;;;;;;12.20;76.78;100810.37;1726156;82;21070;-84
2022/06/22 01:17:20;;;;;;;15.50;5.65;;;;;;;12.19;76.92;100806.37;1737718;82;21059;-85
2022/06/22 01:20:05;;;;;;;10.70;5.42;;;;;;;12.18;76.89;100806.82;1709999;82;21093;-85
2022/06/22 01:22:52;;;;;;;10.05;4.40;;;;;;;12.17;76.87;100809.42;1712474;82;21755;-84
2022/06/22 01:25:44;;;;;;;8.53;4.67;;;;;;;12.15;76.90;100808.07;1735713;82;21544;-83
2022/06/22 01:28:12;;;;;;;10.98;5.30;;;;;;;12.15;76.89;100812.03;1727500;82;21068;-84
2022/06/22 01:30:49;;;;;;;10.03;5.42;;;;;;;12.14;76.89;100814.19;1723679;82;21079;-84
2022/06/22 01:33:24;;;;;;;9.13;4.75;;;;;;;12.12;76.93;100812.39;1734770;82;21059;-85
2022/06/22 01:35:57;;;;;;;11.65;5.40;;;;;;;12.09;76.96;100815.88;1702365;82;22994;-84
2022/06/22 01:38:29;;;;;;;9.83;5.50;;;;;;;12.09;77.05;100815.88;1727385;82;21064;-84
2022/06/22 01:41:25;;;;;;;13.83;5.08;;;;;;;12.08;77.05;100819.36;1713958;82;21171;-84
2022/06/22 01:44:38;;;;;;;9.30;5.20;;;;;;;12.08;77.07;100816.72;1719202;82;21170;-85
2022/06/22 01:47:35;;;;;;;10.18;4.97;;;;;;;12.06;77.01;100813.16;1719728;82;21050;-84
2022/06/22 01:50:15;;;;;;;10.18;5.50;;;;;;;12.03;77.01;100818.37;1704556;82;21776;-83
2022/06/22 01:53:05;;;;;;;11.08;5.60;;;;;;;11.98;76.97;100824.00;1708562;82;21285;-84
2022/06/22 01:55:56;;;;;;;10.93;6.22;;;;;;;11.95;77.06;100823.48;1711842;82;21060;-83
2022/06/22 01:58:40;;;;;;;12.15;5.62;;;;;;;11.93;77.11;100821.69;1645574;85;21440;-83
2022/06/22 02:01:19;;;;;;;11.68;5.85;;;;;;;11.91;77.15;100830.88;1713995;82;21033;-83
2022/06/22 02:04:15;;;;;;;16.87;6.97;;;;;;;11.90;77.19;100826.48;1710524;82;21796;-84
2022/06/22 02:09:59;;;;;;;11.20;5.97;;;;;;;11.85;77.27;100825.02;1690254;84;21724;-85
2022/06/22 02:12:28;;;;;;;13.28;6.22;;;;;;;11.86;77.30;100820.63;1710133;82;21274;-84
2022/06/22 02:15:27;;;;;;;12.43;5.28;;;;;;;11.83;77.34;100823.22;1695783;83;21092;-84
2022/06/22 02:17:53;;;;;;;13.93;5.45;;;;;;;11.81;77.38;100824.50;1664355;82;21800;-84
2022/06/22 02:20:34;;;;;;;9.58;5.92;;;;;;;11.81;77.43;100824.50;1709239;83;21069;-84
2022/06/22 02:23:06;;;;;;;13.75;5.95;;;;;;;11.82;77.44;100824.98;1712369;82;21082;-84
2022/06/22 02:25:35;;;;;;;9.55;5.62;;;;;;;11.83;77.44;100839.92;1705060;82;21268;-83
2022/06/22 02:28:02;;;;;;;13.45;6.47;;;;;;;11.84;77.39;100840.41;1652393;85;21080;-84
2022/06/22 02:30:29;;;;;;;13.32;6.15;;;;;;;11.85;77.44;100838.20;1671949;85;21763;-84
2022/06/22 02:32:58;;;;;;;9.50;5.62;;;;;;;11.86;77.45;100840.41;1717760;82;21066;-84
2022/06/22 02:35:25;;;;;;;11.03;5.87;;;;;;;11.86;77.42;100837.77;1719329;82;21074;-84
2022/06/22 02:37:55;;;;;;;10.88;6.35;;;;;;;11.86;77.42;100843.05;1730154;82;21035;-84
2022/06/22 02:40:25;;;;;;;10.38;5.35;;;;;;;11.87;77.44;100839.12;1727450;82;21062;-85
2022/06/22 02:45:38;;;;;;;10.40;5.67;;;;;;;11.91;77.40;100844.08;1719161;82;21055;-83
2022/06/22 02:48:28;;;;;;;11.88;6.08;;;;;;;11.95;77.44;100852.50;1686977;84;21650;-84
2022/06/22 02:51:15;;;;;;;9.60;5.37;;;;;;;12.00;77.45;100856.14;1721748;82;21102;-83
2022/06/22 02:53:42;;;;;;;11.50;5.97;;;;;;;12.06;77.54;100863.30;1680185;83;21537;-83
2022/06/22 02:56:16;;;;;;;9.68;5.87;;;;;;;12.13;77.58;100857.73;1704317;82;21767;-83
2022/06/22 02:58:45;;;;;;;14.03;7.37;;;;;;;12.20;77.63;100864.88;1705713;83;21059;-83
2022/06/22 03:01:15;;;;;;;13.55;7.78;;;;;;;12.27;77.63;100862.83;1719977;82;21055;-84
2022/06/22 03:03:58;;;;;;;14.75;8.63;;;;;;;12.35;77.72;100862.57;1718538;82;21047;-85
2022/06/22 03:06:29;;;;;;;15.98;8.30;;;;;;;12.43;77.71;100860.08;1703917;82;21058;-83
2022/06/22 03:08:59;;;;;;;17.87;7.92;;;;;;;12.53;77.66;100856.73;1687087;82;22827;-83
2022/06/22 03:11:28;;;;;;;13.78;7.45;;;;;;;12.62;77.69;100856.91;1733839;82;21134;-84
2022/06/22 03:14:14;;;;;;;13.28;6.37;;;;;;;12.72;77.55;100865.00;1715841;82;21086;-84
2022/06/22 03:16:42;;;;;;;9.68;5.90;;;;;;;12.81;77.55;100867.36;1699875;82;21094;-84
2022/06/22 03:19:16;;;;;;;10.65;6.28;;;;;;;12.94;77.56;100868.92;1723445;82;21540;-84
2022/06/22 03:21:44;;;;;;;9.05;5.97;;;;;;;13.06;77.59;100858.98;1741287;82;23050;-83
2022/06/22 03:24:23;;;;;;;7.78;5.85;;;;;;;13.18;77.47;100860.07;1721172;82;21032;-83
2022/06/22 03:26:56;;;;;;;9.15;5.58;;;;;;;13.34;77.60;100862.54;1722713;82;21058;-84
2022/06/22 03:29:27;;;;;;;8.78;5.67;;;;;;;13.62;77.97;100861.64;1714164;82;21506;-84
2022/06/22 03:32:11;;;;;;;11.35;5.83;;;;;;;14.70;80.62;100862.98;1725482;82;21141;-84
2022/06/22 03:34:41;;;;;;;9.13;5.25;;;;;;;15.97;79.09;100855.06;1735021;82;21724;-84
2022/06/22 03:37:25;;;;;;;11.08;5.53;;;;;;;17.21;78.47;100851.83;1732965;81;21129;-85
2022/06/22 03:39:55;;;;;;;12.95;6.17;;;;;;;17.69;74.81;100847.73;1698406;83;21104;-83
2022/06/22 03:42:48;;;;;;;8.50;5.28;;;;;;;17.25;72.58;100833.63;1722065;82;21036;-85
2022/06/22 03:45:34;;;;;;;11.57;5.22;;;;;;;17.02;72.19;100850.91;1710058;82;21074;-83
2022/06/22 03:48:26;;;;;;;12.28;5.80;;;;;;;16.87;71.90;100844.27;1700620;82;22521;-84
2022/06/22 03:51:07;;;;;;;8.78;5.17;;;;;;;17.00;72.24;100848.70;1721253;82;21354;-83
2022/06/22 03:53:48;;;;;;;13.32;5.20;;;;;;;17.59;72.42;100846.87;1726851;82;21298;-83
2022/06/22 03:56:18;;;;;;;6.17;4.10;;;;;;;19.34;74.29;100845.01;1725141;82;21071;-83
2022/06/22 03:58:47;;;;;;;10.95;4.10;;;;;;;21.86;73.63;100844.48;1712356;82;21055;-82
2022/06/22 04:01:14;;;;;;;9.08;4.30;;;;;;;24.00;70.62;100844.67;1696038;82;23134;-82
2022/06/22 04:03:46;;;;;;;7.15;3.80;;;;;;;25.83;68.02;100842.32;1726738;82;21059;-83
2022/06/22 04:06:20;;;;;;;8.28;3.70;;;;;;;27.34;65.83;100814.28;1724487;82;21059;-85
2022/06/22 04:08:47;;;;;;;5.08;2.77;;;;;;;28.89;62.84;100845.45;1650097;85;21079;-84
2022/06/22 04:11:25;;;;;;;6.70;3.10;;;;;;;30.21;59.98;100851.22;1671755;84;21513;-86
2022/06/22 04:14:13;;;;;;;5.95;2.92;;;;;;;31.20;57.17;100848.72;1677396;85;21831;-86
2022/06/22 04:16:43;;;;;;;7.67;2.50;;;;;;;32.01;55.07;100849.28;1675961;85;21102;-84
2022/06/22 04:19:47;;;;;;;4.17;2.55;;;;;;;33.05;52.58;100849.77;1672878;85;21059;-87
2022/06/22 04:22:20;;;;;;;5.58;2.58;;;;;;;33.74;50.78;100847.78;1654309;84;21095;-85
2022/06/22 04:24:49;;;;;;;;;;;;;;;34.72;48.70;100853.44;1664771;85;21399;-85
2022/06/22 04:27:33;;;;;;;6.33;2.50;;;;;;;35.45;46.35;100845.21;1700758;82;21779;-86
2022/06/22 04:30:05;;;;;;;5.40;2.70;;;;;;;35.98;45.48;100845.56;1691761;83;21612;-86
2022/06/22 04:32:42;;;;;;;7.85;2.77;;;;;;;36.67;44.35;100847.30;1667044;84;21771;-87
2022/06/22 04:35:26;;;;;;;6.95;3.05;;;;;;;37.25;42.48;100851.97;1688535;84;21126;-84
2022/06/22 04:38:07;;;;;;;5.28;2.80;;;;;;;37.65;40.88;100851.26;1724975;81;21616;-84
2022/06/22 04:41:05;;;;;;;5.58;2.50;;;;;;;37.98;39.66;100858.91;1728892;82;21755;-83
2022/06/22 04:43:32;;;;;;;5.50;2.70;;;;;;;38.22;38.53;100858.61;1700354;84;21628;-85
2022/06/22 04:45:58;;;;;;;5.15;2.67;;;;;;;38.60;37.25;100854.26;1729320;82;21556;-85
2022/06/22 04:48:38;;;;;;;6.65;2.62;;;;;;;38.81;36.30;100856.89;1727747;82;21055;-86
2022/06/22 04:51:06;;;;;;;9.65;2.72;;;;;;;39.11;35.68;100862.46;1717323;82;21089;-85
2022/06/22 04:53:37;;;;;;;4.45;2.20;;;;;;;39.57;35.08;100863.59;1694058;83;22677;-85
2022/06/22 04:56:13;;;;;;;3.58;1.82;;;;;;;40.06;33.74;100864.37;1679034;84;22404;-86
2022/06/22 04:58:52;;;;;;;5.17;2.05;;;;;;;40.32;33.22;100862.28;1705061;83;21034;-88
2022/06/22 05:01:33;;;;;;;4.60;2.52;;;;;;;40.77;32.44;100866.52;1698243;83;21080;-85
2022/06/22 05:04:05;;;;;;;6.72;2.30;;;;;;;41.13;31.71;100875.33;1697512;83;21619;-84
2022/06/22 05:06:55;;;;;;;5.12;2.15;;;;;;;41.38;30.99;100872.28;1681637;83;21837;-87
2022/06/22 05:09:45;;;;;;;7.58;1.98;;;;;;;41.43;30.26;100875.45;1704100;84;21042;-86
2022/06/22 05:12:23;;;;;;;5.58;2.42;;;;;;;41.58;30.05;100879.36;1705277;84;21691;-86
2022/06/22 05:14:50;;;;;;;4.67;2.02;;;;;;;41.96;29.20;100877.22;1701252;84;21090;-89
2022/06/22 05:17:34;;;;;;;8.60;2.80;;;;;;;42.10;28.71;100870.25;1702751;84;21085;-90
2022/06/22 05:20:06;;;;;;;5.35;2.45;;;;;;;42.19;28.45;100861.98;1693996;84;21777;-86
2022/06/22 05:22:34;;;;;;;6.92;2.47;;;;;;;42.39;27.79;100865.36;1691972;84;21046;-88
2022/06/22 05:25:06;;;;;;;7.05;1.98;;;;;;;42.61;27.61;100859.73;1679289;83;21651;-88
2022/06/22 05:28:12;;;;;;;4.28;2.22;;;;;;;42.90;27.11;100856.55;1666174;84;21050;-85
2022/06/22 05:30:50;;;;;;;4.95;1.85;;;;;;;42.90;26.48;100858.80;1669589;84;21137;-89
2022/06/22 05:33:20;;;;;;;5.25;2.15;;;;;;;42.85;26.17;100863.94;1642910;85;21499;-89
2022/06/22 05:36:03;;;;;;;7.53;2.22;;;;;;;42.75;25.91;100868.78;1651975;85;21622;-86
2022/06/22 05:38:31;;;;;;;4.10;2.00;;;;;;;42.53;25.43;100874.42;1667306;85;21062;-88
2022/06/22 05:41:00;;;;;;;4.22;2.12;;;;;;;42.60;25.42;100869.95;1621167;86;21419;-86
2022/06/22 05:43:26;;;;;;;4.22;2.05;;;;;;;42.29;24.94;100868.23;1577046;88;21206;-86
2022/06/22 05:45:55;;;;;;;4.55;2.33;;;;;;;40.25;24.22;100867.55;1613998;86;21917;-87
2022/06/22 05:48:24;;;;;;;7.00;2.40;;;;;;;37.41;24.85;100869.85;1664267;85;21688;-85
2022/06/22 05:51:05;;;;;;;5.90;2.45;;;;;;;34.78;25.84;100869.88;1644097;85;21079;-86
2022/06/22 05:54:00;;;;;;;11.30;4.35;;;;;;;32.15;27.14;100865.16;1651620;85;21612;-87
2022/06/22 05:56:43;;;;;;;7.37;4.62;;;;;;;30.06;29.20;100862.44;1620254;87;21602;-87
2022/06/22 05:59:28;;;;;;;10.03;2.85;;;;;;;28.63;30.82;100857.57;1645055;87;21881;-84
2022/06/22 06:02:09;;;;;;;12.05;3.25;;;;;;;27.33;31.95;100861.20;1646455;85;21183;-84
2022/06/22 06:04:49;;;;;;;8.33;2.35;;;;;;;26.01;33.18;100867.77;1611819;88;21123;-86
2022/06/22 06:07:30;;;;;;;11.22;3.12;;;;;;;24.89;34.33;100876.52;1643840;85;21075;-86
2022/06/22 06:09:56;;;;;;;4.97;3.20;;;;;;;23.90;36.00;100877.27;1640052;85;21099;-86
2022/06/22 06:12:27;;;;;;;6.83;3.22;;;;;;;23.33;37.09;100876.97;1642725;85;21741;-84
2022/06/22 06:14:54;;;;;;;9.58;4.10;;;;;;;22.89;37.91;100882.47;1643508;85;21123;-84
2022/06/22 06:17:38;;;;;;;6.45;3.75;;;;;;;22.46;38.65;100887.48;1651873;85;21070;-86
2022/06/22 06:20:06;;;;;;;;;;;;;;;22.02;39.39;100881.71;1632613;85;21082;-84
2022/06/22 06:22:35;;;;;;;4.62;2.00;;;;;;;21.78;40.44;100880.40;1628729;86;20829;-86
2022/06/22 06:27:56;;;;;;;6.60;3.72;;;;;;;21.60;41.52;100887.84;1651981;86;21652;-88
2022/06/22 06:30:33;;;;;;;7.00;5.00;;;;;;;21.67;42.02;100893.98;1685606;83;21031;-84
2022/06/22 06:33:20;;;;;;;7.53;3.25;;;;;;;21.83;42.25;100891.45;1712092;82;21482;-86
2022/06/22 06:35:54;;;;;;;7.92;2.47;;;;;;;21.89;42.43;100902.05;1718597;82;21078;-84
2022/06/22 06:38:40;;;;;;;5.30;2.80;;;;;;;21.73;42.50;100903.24;1725001;81;23131;-87
2022/06/22 06:41:23;;;;;;;8.18;3.05;;;;;;;21.55;42.78;100909.38;1704716;82;21071;-87
2022/06/22 06:43:55;;;;;;;6.20;2.65;;;;;;;21.38;43.20;100900.73;1691230;83;21050;-84
2022/06/22 06:46:36;;;;;;;5.05;2.70;;;;;;;21.08;43.51;100895.44;1705453;82;21063;-84
2022/06/22 06:49:11;;;;;;;9.68;2.83;;;;;;;20.94;44.21;100897.84;1718540;82;21056;-84
2022/06/22 06:51:40;;;;;;;9.13;3.92;;;;;;;20.84;44.22;100892.22;1717940;82;21780;-85
2022/06/22 06:54:34;;;;;;;8.13;3.87;;;;;;;20.72;44.52;100891.96;1686804;82;21058;-86
2022/06/22 06:57:06;;;;;;;4.75;2.62;;;;;;;20.65;45.03;100880.04;1677471;84;21317;-84
2022/06/22 06:59:33;;;;;;;6.90;3.60;;;;;;;20.82;45.34;100899.85;1679117;82;21047;-86
2022/06/22 07:02:05;;;;;;;7.12;2.12;;;;;;;21.51;45.68;100900.97;1703310;84;21093;-84
2022/06/22 07:04:34;;;;;;;5.87;2.83;;;;;;;21.51;45.68;100900.97;1695343;83;21764;-85
2022/06/22 07:07:09;;;;;;;7.47;2.72;;;;;;;21.81;45.42;100908.45;1676507;82;21078;-85
2022/06/22 07:09:38;;;;;;;5.50;2.70;;;;;;;21.85;45.28;100902.15;1636447;83;21099;-84
2022/06/22 07:12:25;;;;;;;6.12;2.75;;;;;;;22.08;45.34;100910.59;1689114;82;21079;-84
2022/06/22 07:14:51;;;;;;;10.10;3.65;;;;;;;22.32;45.05;100919.10;1687310;84;21250;-84
2022/06/22 07:17:20;;;;;;;5.53;2.33;;;;;;;22.34;44.75;100915.05;1705087;83;21904;-86
2022/06/22 07:19:54;;;;;;;5.90;2.60;;;;;;;22.25;44.66;100916.99;1702520;82;21301;-87
2022/06/22 07:22:47;;;;;;;6.10;3.27;;;;;;;22.11;44.98;100914.57;1682503;84;21102;-85
2022/06/22 07:25:34;;;;;;;12.10;8.43;;;;;;;21.96;44.88;100907.27;1691375;84;21169;-85
2022/06/22 07:28:12;;;;;;;5.67;3.17;;;;;;;21.78;45.14;100900.49;1703775;82;21093;-84
2022/06/22 07:30:55;;;;;;;6.17;2.77;;;;;;;21.58;45.30;100906.20;1650025;85;21625;-85
2022/06/22 07:33:51;;;;;;;5.92;2.25;;;;;;;21.49;45.52;100901.45;1684415;84;21680;-87
2022/06/22 07:36:38;;;;;;;5.67;2.20;;;;;;;21.48;45.32;100903.69;1697879;82;21061;-87
2022/06/22 07:39:14;;;;;;;4.35;2.10;;;;;;;21.39;45.36;100875.70;1664367;84;21662;-85
2022/06/22 07:41:41;;;;;;;4.75;2.47;;;;;;;21.57;45.58;100905.33;1659559;85;21052;-87
2022/06/22 07:44:22;;;;;;;7.83;3.58;;;;;;;21.72;45.73;100902.83;1668625;84;21828;-85
2022/06/22 07:47:33;;;;;;;9.00;2.87;;;;;;;21.81;45.71;100906.68;1695486;82;21522;-84
2022/06/22 07:50:24;;;;;;;9.88;3.50;;;;;;;21.88;45.89;100896.24;1696157;84;21099;-84
2022/06/22 07:53:03;;;;;;;7.35;2.25;;;;;;;22.23;45.62;100897.81;1685520;82;21059;-86
2022/06/22 07:55:41;;;;;;;5.08;2.45;;;;;;;22.59;45.51;100903.32;1674804;84;21118;-84
2022/06/22 07:58:30;;;;;;;7.65;3.67;;;;;;;22.91;45.17;100903.45;1683448;82;23001;-86
2022/06/22 08:01:10;;;;;;;6.40;2.90;;;;;;;23.15;44.79;100902.95;1719733;82;21082;-86
2022/06/22 08:03:49;;;;;;;6.20;4.42;;;;;;;23.28;44.50;100911.98;1697713;82;21130;-86
2022/06/22 08:06:29;;;;;;;9.25;4.58;;;;;;;23.30;43.96;100914.64;1712449;82;21167;-84
2022/06/22 08:09:23;;;;;;;5.05;2.33;;;;;;;23.23;43.76;100907.19;1684176;83;21072;-84
2022/06/22 08:12:01;;;;;;;4.35;2.60;;;;;;;23.36;43.75;100902.86;1713913;82;22472;-84
2022/06/22 08:14:34;;;;;;;5.35;3.47;;;;;;;23.46;43.58;100906.62;1712082;83;21079;-85
2022/06/22 08:17:04;;;;;;;4.37;3.00;;;;;;;23.23;43.12;100902.28;1670655;85;21422;-84
2022/06/22 08:19:31;;;;;;;7.65;5.37;;;;;;;23.12;43.31;100910.59;1692417;83;21115;-87
2022/06/22 08:22:00;;;;;;;7.67;4.42;;;;;;;23.02;43.09;100917.09;1699116;83;21813;-84
2022/06/22 08:24:29;;;;;;;8.73;5.47;;;;;;;22.83;43.32;100905.91;1709675;82;21763;-84
2022/06/22 08:26:56;;;;;;;7.05;5.47;;;;;;;22.82;43.80;100914.86;1674778;84;21039;-87
2022/06/22 08:29:23;;;;;;;6.60;3.98;;;;;;;22.71;43.59;100911.08;1715520;82;21073;-87
2022/06/22 08:32:11;;;;;;;9.25;4.28;;;;;;;22.75;44.18;100915.92;1721770;82;21163;-85
2022/06/22 08:34:45;;;;;;;8.98;4.78;;;;;;;22.99;44.25;100923.86;1715863;83;21153;-85
2022/06/22 08:37:19;;;;;;;8.45;3.37;;;;;;;23.28;44.10;100910.64;1683868;83;21806;-85
2022/06/22 08:40:21;;;;;;;8.30;3.90;;;;;;;23.44;43.28;100920.99;1720670;82;21060;-86
2022/06/22 08:42:56;;;;;;;4.83;3.25;;;;;;;23.40;43.25;100931.41;1611891;86;21143;-87
2022/06/22 08:45:40;;;;;;;5.12;2.20;;;;;;;23.22;43.21;100935.45;1700872;82;21091;-87
2022/06/22 08:48:50;;;;;;;6.78;4.35;;;;;;;23.00;43.14;100935.91;1711350;82;21071;-86
2022/06/22 08:52:00;;;;;;;5.60;2.52;;;;;;;22.75;43.49;100927.55;1695630;82;21777;-84
2022/06/22 08:54:45;;;;;;;5.95;2.30;;;;;;;22.71;43.57;100932.11;1711873;81;21026;-84
2022/06/22 08:57:32;;;;;;;6.65;3.92;;;;;;;22.94;43.75;100926.67;1709549;82;21568;-87
2022/06/22 09:00:06;;;;;;;9.73;3.60;;;;;;;23.00;43.52;100925.17;1709219;82;21132;-85
2022/06/22 09:02:59;;;;;;;5.87;2.70;;;;;;;22.97;43.57;100929.27;1714549;82;21135;-84
2022/06/22 09:05:55;;;;;;;5.73;2.10;;;;;;;22.95;43.20;100931.10;1677730;83;21810;-84
2022/06/22 09:09:07;;;;;;;5.35;3.00;;;;;;;22.87;43.42;100933.97;1721409;82;21079;-87
2022/06/22 09:11:53;;;;;;;6.55;2.58;;;;;;;22.89;43.57;100939.31;1723082;82;21145;-85
2022/06/22 09:14:47;;;;;;;6.08;2.10;;;;;;;22.86;43.36;100929.53;1739729;82;21734;-84
2022/06/22 09:17:41;;;;;;;7.72;2.98;;;;;;;22.90;43.47;100937.06;1729583;82;21048;-85
2022/06/22 09:20:36;;;;;;;6.20;3.12;;;;;;;22.96;43.31;100936.03;1701581;82;22574;-85
2022/06/22 09:23:32;;;;;;;4.05;2.02;;;;;;;22.96;43.30;100937.38;1704168;82;21118;-87
2022/06/22 09:26:48;;;;;;;7.47;5.05;;;;;;;23.07;43.35;100932.67;1691240;82;21058;-87
2022/06/22 09:29:49;;;;;;;10.90;3.20;;;;;;;23.21;43.29;100939.03;1716228;81;21030;-87
2022/06/22 09:32:47;;;;;;;7.58;4.35;;;;;;;23.20;43.22;100943.97;1726398;81;21066;-86
2022/06/22 09:35:50;;;;;;;4.37;2.47;;;;;;;23.02;42.87;100940.78;1726107;82;22606;-87
2022/06/22 09:38:50;;;;;;;5.47;3.00;;;;;;;22.96;43.06;100941.41;1674984;83;21103;-87
2022/06/22 09:41:41;;;;;;;3.87;2.12;;;;;;;23.02;43.13;100935.41;1654207;85;21075;-87
2022/06/22 09:44:22;;;;;;;4.95;2.80;;;;;;;23.17;43.60;100942.25;1674046;83;21143;-87
2022/06/22 09:47:09;;;;;;;5.33;2.20;;;;;;;23.36;43.32;100937.31;1692876;83;21150;-85
2022/06/22 09:50:01;;;;;;;4.67;2.00;;;;;;;23.50;43.20;100935.63;1703657;84;21784;-87
2022/06/22 09:52:58;;;;;;;6.80;1.85;;;;;;;23.67;42.74;100935.20;1672203;84;21130;-85
2022/06/22 09:59:04;;;;;;;5.70;2.35;;;;;;;23.62;41.97;100930.39;1665228;84;21134;-87
2022/06/22 10:01:57;;;;;;;4.35;2.00;;;;;;;23.56;41.44;100929.22;1677136;83;21070;-85
2022/06/22 10:04:48;;;;;;;6.17;1.72;;;;;;;23.45;41.41;100923.64;1653467;84;22495;-86
2022/06/22 10:07:44;;;;;;;6.28;1.92;;;;;;;23.70;42.08;100937.78;1670537;84;21075;-84
2022/06/22 10:10:50;;;;;;;5.28;1.85;;;;;;;24.05;42.00;100934.64;1671106;84;21119;-85
2022/06/22 10:13:27;;;;;;;8.35;3.72;;;;;;;24.29;41.88;100944.27;1569417;89;21622;-85
2022/06/22 10:16:22;;;;;;;5.10;4.20;;;;;;;24.32;41.36;100949.56;1583464;90;21380;-86
2022/06/22 10:19:31;;;;;;;4.65;3.45;;;;;;;24.38;41.27;100949.37;1576348;88;21463;-86
2022/06/22 10:22:10;;;;;;;2.92;1.70;;;;;;;24.58;40.50;100953.74;1589128;89;21072;-84
2022/06/22 10:24:56;;;;;;;5.50;2.08;;;;;;;24.67;40.21;100952.59;1535739;89;21127;-84
2022/06/22 10:27:34;;;;;;;6.05;2.17;;;;;;;24.86;40.07;100943.48;1549801;90;21607;-86
2022/06/22 10:30:18;;;;;;;5.55;2.15;;;;;;;24.97;39.91;100951.23;1588176;88;21571;-86
2022/06/22 10:33:27;;;;;;;7.37;6.00;;;;;;;25.04;39.62;100951.45;1586837;88;22027;-84
2022/06/22 10:36:28;;;;;;;6.55;4.30;;;;;;;25.14;39.49;100947.52;1571916;88;21123;-84
2022/06/22 10:39:19;;;;;;;7.90;4.87;;;;;;;25.34;39.20;100937.48;1529221;90;21125;-84
2022/06/22 10:45:36;;;;;;;6.23;3.40;;;;;;;25.34;37.86;100941.52;1569958;89;21150;-84
2022/06/22 10:48:41;;;;;;;3.60;2.27;;;;;;;25.29;38.36;100950.69;1616990;87;22615;-84
2022/06/22 10:51:40;;;;;;;5.47;2.35;;;;;;;25.04;38.34;100946.07;1628369;86;21079;-84
2022/06/22 10:54:31;;;;;;;4.47;1.90;;;;;;;24.46;38.57;100941.98;1599469;86;21101;-84
2022/06/22 10:57:39;;;;;;;16.82;5.75;;;;;;;23.94;39.01;100943.00;1672440;85;21317;-87
2022/06/22 11:00:31;;;;;;;4.35;2.15;;;;;;;23.55;39.34;100951.63;1644462;85;21096;-87
2022/06/22 11:03:18;;;;;;;3.55;1.72;;;;;;;23.27;39.73;100941.56;1707578;82;21821;-84
2022/06/22 11:06:31;;;;;;;4.78;1.80;;;;;;;23.27;40.12;100934.84;1732631;82;21126;-84
2022/06/22 11:09:35;;;;;;;5.83;4.58;;;;;;;23.44;39.93;100937.11;1735744;82;21059;-87
2022/06/22 11:12:27;;;;;;;6.42;2.90;;;;;;;23.78;39.80;100944.30;1697851;84;21142;-87
2022/06/22 11:15:22;;;;;;;7.50;5.00;;;;;;;23.94;39.82;100937.62;1737462;82;21569;-88
2022/06/22 11:18:31;;;;;;;6.30;3.05;;;;;;;24.11;39.81;100934.45;1730815;82;21767;-85
2022/06/22 11:21:32;;;;;;;3.85;2.08;;;;;;;23.98;39.61;100923.63;1729280;82;21080;-85
2022/06/22 11:24:43;;;;;;;6.20;2.60;;;;;;;23.99;39.61;100945.58;1719239;82;21139;-85
2022/06/22 11:30:51;;;;;;;8.00;2.52;;;;;;;23.65;41.41;100945.11;1669975;85;21117;-86
2022/06/22 11:34:01;;;;;;;7.78;3.08;;;;;;;23.53;41.88;100943.59;1666864;84;21789;-87
2022/06/22 11:37:00;;;;;;;5.92;2.37;;;;;;;23.38;42.53;100934.59;1678645;84;21194;-84
2022/06/22 11:39:35;;;;;;;7.20;2.50;;;;;;;23.58;42.98;100945.72;1635798;84;21258;-86
2022/06/22 11:42:29;;;;;;;7.05;2.72;;;;;;;23.70;42.73;100950.34;1664503;84;21172;-84
2022/06/22 11:48:48;;;;;;;8.40;2.60;;;;;;;23.75;42.74;100945.74;1682519;85;21840;-86
2022/06/22 11:52:00;;;;;;;5.28;3.12;;;;;;;23.70;42.80;100951.22;1663238;84;21074;-86
2022/06/22 11:54:35;;;;;;;9.68;2.83;;;;;;;23.90;42.94;100945.83;1661592;86;21070;-86
2022/06/22 11:57:30;;;;;;;9.15;3.12;;;;;;;24.06;43.14;100944.45;1628233;86;21291;-87
2022/06/22 12:00:19;;;;;;;4.78;2.12;;;;;;;24.21;43.29;100941.36;1621591;87;21160;-84
2022/06/22 12:03:26;;;;;;;8.68;2.85;;;;;;;24.22;42.81;100943.58;1647792;86;21817;-85
2022/06/22 12:06:31;;;;;;;5.70;3.33;;;;;;;24.00;42.59;100941.95;1689348;83;22122;-85
2022/06/22 12:09:15;;;;;;;5.67;2.92;;;;;;;23.70;43.08;100949.88;1707459;83;21055;-85
2022/06/22 12:12:16;;;;;;;5.05;2.77;;;;;;;23.65;43.28;100955.86;1708253;83;21175;-87
2022/06/22 12:15:09;;;;;;;8.95;2.67;;;;;;;23.43;43.39;100954.17;1704757;83;21040;-85
2022/06/22 12:18:06;;;;;;;6.67;2.60;;;;;;;23.27;43.44;100949.63;1707917;83;22541;-86
2022/06/22 12:21:10;;;;;;;5.42;3.10;;;;;;;23.15;43.49;100943.22;1703070;83;21049;-86
2022/06/22 12:24:23;;;;;;;4.67;2.40;;;;;;;23.09;43.76;100940.23;1702489;83;21676;-85
2022/06/22 12:27:25;;;;;;;10.05;3.85;;;;;;;23.03;43.86;100947.02;1696357;83;21601;-84
2022/06/22 12:30:19;;;;;;;5.70;2.55;;;;;;;22.83;44.07;100951.06;1567349;90;21840;-86
2022/06/22 12:33:11;;;;;;;5.25;2.40;;;;;;;22.47;44.09;100962.16;1570966;89;22685;-87
2022/06/22 12:35:59;;;;;;;5.80;2.62;;;;;;;22.12;44.53;100927.05;1574001;89;21668;-85
2022/06/22 12:38:40;;;;;;;7.83;2.65;;;;;;;22.04;44.84;100946.89;1591718;88;21688;-84
2022/06/22 12:41:37;;;;;;;6.33;2.27;;;;;;;21.88;44.94;100935.09;1590288;88;21202;-85
2022/06/22 12:44:34;;;;;;;6.10;2.92;;;;;;;21.83;45.07;100942.37;1593021;88;21134;-84
2022/06/22 12:47:19;;;;;;;6.85;3.05;;;;;;;21.74;45.31;100933.16;1596504;89;22644;-86
2022/06/22 12:50:28;;;;;;;8.58;2.80;;;;;;;21.76;45.53;100943.85;1595705;89;21043;-86
2022/06/22 12:53:07;;;;;;;8.45;2.70;;;;;;;21.70;45.57;100938.14;1596213;88;21144;-85
2022/06/22 12:55:41;;;;;;;6.37;2.50;;;;;;;21.69;45.81;100936.36;1606670;87;21284;-86
2022/06/22 12:58:19;;;;;;;5.37;2.30;;;;;;;21.67;45.96;100936.85;1615004;87;21682;-88
2022/06/22 13:00:46;;;;;;;5.92;2.42;;;;;;;21.65;45.78;100935.53;1619296;87;21741;-86